Aviation Digital Data Service (ADDS)

Output produced by METARs form (1749 UTC 31 October 2014)
found at http://aviationweather.gov/adds/metars/
 
KIAH 311720Z 3118/0124 36014G22KT P6SM SKC 
     FM010100 01007KT P6SM SKC 
     FM011500 06007KT P6SM SKC